createdAt,value
2019-03-26T00:01:46.117Z,6.25
2019-03-26T00:04:24.370Z,7.08
2019-03-26T00:07:02.249Z,5.87
2019-03-26T00:09:40.606Z,6.30
2019-03-26T00:12:18.446Z,6.53
2019-03-26T00:14:56.822Z,7.05
2019-03-26T00:17:34.641Z,6.97
2019-03-26T00:20:13.166Z,8.55
2019-03-26T00:22:51.512Z,7.90
2019-03-26T00:25:29.298Z,7.70
2019-03-26T00:28:07.395Z,8.58
2019-03-26T00:30:45.492Z,8.75
2019-03-26T00:33:35.388Z,8.80
2019-03-26T00:36:02.966Z,10.20
2019-03-26T00:38:40.989Z,9.98
2019-03-26T00:41:18.645Z,9.78
2019-03-26T00:43:56.426Z,8.50
2019-03-26T00:46:34.686Z,9.80
2019-03-26T00:49:12.966Z,10.38
2019-03-26T00:51:50.890Z,8.25
2019-03-26T00:54:28.820Z,8.15
2019-03-26T00:57:06.701Z,6.72
2019-03-26T00:59:45.519Z,9.43
2019-03-26T01:02:23.316Z,6.45
2019-03-26T01:05:01.798Z,6.83
2019-03-26T01:07:40.081Z,5.83
2019-03-26T01:10:27.669Z,5.55
2019-03-26T01:13:05.948Z,5.55
2019-03-26T01:15:43.873Z,5.95
2019-03-26T01:18:21.713Z,5.85
2019-03-26T01:20:59.990Z,6.72
2019-03-26T01:23:38.219Z,6.58
2019-03-26T01:26:15.957Z,5.72
2019-03-26T01:28:53.794Z,5.65
2019-03-26T01:31:31.693Z,6.90
2019-03-26T01:34:09.577Z,6.53
2019-03-26T01:36:47.395Z,7.10
2019-03-26T01:39:25.121Z,6.50
2019-03-26T01:42:02.974Z,7.28
2019-03-26T01:44:41.077Z,6.80
2019-03-26T01:47:18.829Z,6.40
2019-03-26T01:49:57.661Z,7.00
2019-03-26T01:52:35.503Z,6.15
2019-03-26T01:55:13.465Z,6.05
2019-03-26T01:57:52.287Z,6.37
2019-03-26T02:00:30.354Z,6.40
2019-03-26T02:03:08.137Z,6.78
2019-03-26T02:05:46.925Z,6.78
2019-03-26T02:08:25.757Z,6.62
2019-03-26T02:11:03.734Z,6.33
2019-03-26T02:13:41.758Z,5.70
2019-03-26T02:16:19.651Z,6.22
2019-03-26T02:18:57.453Z,5.83
2019-03-26T02:21:35.594Z,5.58
2019-03-26T02:24:13.334Z,6.22
2019-03-26T02:26:51.274Z,6.37
2019-03-26T02:29:29.386Z,6.25
2019-03-26T02:32:13.853Z,6.87
2019-03-26T02:34:51.769Z,6.20
2019-03-26T02:37:29.664Z,6.70
2019-03-26T02:40:08.365Z,7.12
2019-03-26T02:42:46.565Z,6.33
2019-03-26T02:45:24.331Z,6.55
2019-03-26T02:48:02.189Z,6.15
2019-03-26T02:50:40.030Z,7.25
2019-03-26T02:53:18.129Z,7.25
2019-03-26T02:55:55.907Z,7.08
2019-03-26T02:58:34.259Z,7.10
2019-03-26T03:01:13.083Z,7.35
2019-03-26T03:04:06.201Z,6.97
2019-03-26T03:06:44.628Z,7.47
2019-03-26T03:09:22.798Z,7.80
2019-03-26T03:12:00.674Z,7.42
2019-03-26T03:14:38.322Z,7.12
2019-03-26T03:17:16.056Z,7.85
2019-03-26T03:19:53.865Z,6.60
2019-03-26T03:22:31.848Z,7.55
2019-03-26T03:25:10.097Z,7.60
2019-03-26T03:27:48.567Z,9.00
2019-03-26T03:30:26.532Z,8.70
2019-03-26T03:33:04.396Z,9.10
2019-03-26T03:35:51.982Z,10.15
2019-03-26T03:38:22.241Z,11.55
2019-03-26T03:41:00.235Z,12.47
2019-03-26T03:43:38.649Z,13.55
2019-03-26T03:46:17.006Z,13.32
2019-03-26T03:48:55.375Z,13.62
2019-03-26T03:51:36.286Z,11.75
2019-03-26T03:54:14.481Z,13.00
2019-03-26T03:56:54.683Z,12.58
2019-03-26T03:59:32.917Z,12.37
2019-03-26T04:02:11.122Z,13.10
2019-03-26T04:04:52.800Z,14.13
2019-03-26T04:07:30.638Z,12.88
2019-03-26T04:10:08.804Z,13.15
2019-03-26T04:12:46.587Z,13.15
2019-03-26T04:15:25.281Z,13.75
2019-03-26T04:18:07.125Z,13.22
2019-03-26T04:20:45.059Z,13.90
2019-03-26T04:23:22.951Z,13.72
2019-03-26T04:26:00.754Z,14.23
2019-03-26T04:28:38.721Z,12.73
2019-03-26T04:31:17.764Z,13.20
2019-03-26T04:33:55.708Z,13.58
2019-03-26T04:36:33.523Z,13.48
2019-03-26T04:39:11.352Z,12.18
2019-03-26T04:41:49.124Z,12.78
2019-03-26T04:44:26.800Z,13.13
2019-03-26T04:47:04.566Z,12.40
2019-03-26T04:49:42.793Z,12.47
2019-03-26T04:52:20.732Z,12.93
2019-03-26T04:54:58.697Z,12.47
2019-03-26T04:57:37.088Z,12.55
2019-03-26T05:00:16.658Z,12.07
2019-03-26T05:02:54.681Z,14.03
2019-03-26T05:05:33.486Z,12.55
2019-03-26T05:08:16.649Z,14.28
2019-03-26T05:10:54.561Z,12.03
2019-03-26T05:13:32.653Z,12.18
2019-03-26T05:16:10.699Z,11.53
2019-03-26T05:18:49.143Z,12.23
2019-03-26T05:21:27.162Z,13.03
2019-03-26T05:24:05.629Z,14.00
2019-03-26T05:26:43.417Z,13.68
2019-03-26T05:29:22.967Z,13.50
2019-03-26T05:32:01.034Z,12.43
2019-03-26T05:34:38.947Z,13.58
2019-03-26T05:37:17.272Z,12.65
2019-03-26T05:39:55.352Z,13.68
2019-03-26T05:42:33.113Z,12.18
2019-03-26T05:45:11.878Z,13.65
2019-03-26T05:47:50.151Z,14.23
2019-03-26T05:50:27.960Z,14.00
2019-03-26T05:53:05.997Z,12.10
2019-03-26T05:55:44.792Z,12.47
2019-03-26T05:58:23.352Z,11.43
2019-03-26T06:01:01.328Z,9.63
2019-03-26T06:03:39.141Z,11.03
2019-03-26T06:06:17.845Z,10.18
2019-03-26T06:08:56.301Z,9.25
2019-03-26T06:11:35.797Z,9.58
2019-03-26T06:14:14.390Z,9.23
2019-03-26T06:16:52.249Z,9.50
2019-03-26T06:19:30.668Z,9.73
2019-03-26T06:22:08.530Z,8.78
2019-03-26T06:24:46.843Z,7.97
2019-03-26T06:27:24.798Z,8.73
2019-03-26T06:30:02.915Z,7.50
2019-03-26T06:32:42.341Z,7.78
2019-03-26T06:35:20.978Z,7.45
2019-03-26T06:37:59.267Z,7.97
2019-03-26T06:40:37.131Z,7.58
2019-03-26T06:43:15.004Z,7.47
2019-03-26T06:45:52.979Z,8.10
2019-03-26T06:48:30.828Z,6.70
2019-03-26T06:51:08.530Z,6.95
2019-03-26T06:53:47.034Z,7.20
2019-03-26T06:56:25.376Z,7.08
2019-03-26T06:59:03.535Z,6.42
2019-03-26T07:01:41.418Z,6.12
2019-03-26T07:04:19.190Z,5.58
2019-03-26T07:06:57.941Z,5.65
2019-03-26T07:09:36.327Z,6.35
2019-03-26T07:12:14.361Z,5.25
2019-03-26T07:14:52.704Z,5.10
2019-03-26T07:17:30.385Z,5.53
2019-03-26T07:20:09.698Z,5.53
2019-03-26T07:22:48.120Z,4.72
2019-03-26T07:25:26.827Z,6.00
2019-03-26T07:28:04.938Z,5.60
2019-03-26T07:30:44.118Z,6.20
2019-03-26T07:33:21.909Z,5.53
2019-03-26T07:36:00.155Z,5.75
2019-03-26T07:38:38.521Z,5.17
2019-03-26T07:41:16.641Z,5.85
2019-03-26T07:43:54.305Z,6.70
2019-03-26T07:46:32.238Z,6.22
2019-03-26T07:49:10.128Z,6.45
2019-03-26T07:51:48.016Z,8.60
2019-03-26T07:54:25.759Z,10.08
2019-03-26T07:57:03.603Z,6.65
2019-03-26T07:59:41.362Z,6.47
2019-03-26T08:02:19.107Z,6.58
2019-03-26T08:04:56.904Z,7.60
2019-03-26T08:07:34.748Z,8.35
2019-03-26T08:10:13.112Z,6.17
2019-03-26T08:12:51.067Z,6.65
2019-03-26T08:15:28.905Z,5.70
2019-03-26T08:18:12.537Z,5.62
2019-03-26T08:20:50.444Z,5.53
2019-03-26T08:23:28.194Z,5.03
2019-03-26T08:26:06.108Z,4.20
2019-03-26T08:28:44.050Z,3.90
2019-03-26T08:31:22.317Z,4.47
2019-03-26T08:34:00.204Z,3.98
2019-03-26T08:36:38.298Z,4.25
2019-03-26T08:39:16.150Z,4.00
2019-03-26T08:41:53.952Z,3.60
2019-03-26T08:44:31.986Z,4.15
2019-03-26T08:47:10.230Z,3.72
2019-03-26T08:49:48.953Z,4.35
2019-03-26T08:52:26.911Z,4.25
2019-03-26T08:55:05.378Z,4.30
2019-03-26T08:57:44.318Z,4.00
2019-03-26T09:00:22.229Z,4.40
2019-03-26T09:03:00.281Z,4.28
2019-03-26T09:05:38.321Z,4.20
2019-03-26T09:08:25.301Z,4.75
2019-03-26T09:10:55.636Z,4.28
2019-03-26T09:13:34.283Z,4.30
2019-03-26T09:16:12.263Z,3.95
2019-03-26T09:18:50.342Z,4.12
2019-03-26T09:21:28.268Z,4.33
2019-03-26T09:24:06.110Z,3.83
2019-03-26T09:26:44.052Z,3.50
2019-03-26T09:29:22.290Z,3.90
2019-03-26T09:32:00.523Z,4.03
2019-03-26T09:34:38.900Z,4.10
2019-03-26T09:37:17.184Z,3.62
2019-03-26T09:40:06.097Z,3.60
2019-03-26T09:42:44.120Z,3.70
2019-03-26T09:45:22.109Z,3.80
2019-03-26T09:48:00.182Z,3.30
2019-03-26T09:50:38.282Z,3.33
2019-03-26T09:53:16.777Z,3.20
2019-03-26T09:55:55.970Z,3.22
2019-03-26T09:58:33.807Z,3.92
2019-03-26T10:01:12.023Z,2.95
2019-03-26T10:03:49.961Z,4.20
2019-03-26T10:06:27.747Z,3.75
2019-03-26T10:09:07.583Z,4.08
2019-03-26T10:11:45.437Z,4.40
2019-03-26T10:14:23.299Z,4.15
2019-03-26T10:17:01.012Z,4.00
2019-03-26T10:19:38.739Z,4.92
2019-03-26T10:22:19.921Z,3.45
2019-03-26T10:24:57.161Z,2.70
2019-03-26T10:27:35.344Z,3.00
2019-03-26T10:30:15.337Z,3.12
2019-03-26T10:32:53.179Z,3.00
2019-03-26T10:35:31.039Z,3.22
2019-03-26T10:38:09.047Z,2.95
2019-03-26T10:40:46.895Z,2.55
2019-03-26T10:43:24.900Z,2.77
2019-03-26T10:46:02.628Z,2.42
2019-03-26T10:48:40.740Z,3.00
2019-03-26T10:51:19.136Z,2.77
2019-03-26T10:53:56.893Z,2.67
2019-03-26T10:56:34.642Z,3.12
2019-03-26T10:59:17.524Z,3.45
2019-03-26T11:01:55.293Z,3.15
2019-03-26T11:04:33.174Z,3.12
2019-03-26T11:07:11.524Z,2.92
2019-03-26T11:09:49.804Z,2.22
2019-03-26T11:12:28.448Z,2.30
2019-03-26T11:15:06.941Z,1.55
2019-03-26T11:17:45.882Z,2.67
2019-03-26T11:20:23.585Z,2.30
2019-03-26T11:23:01.752Z,2.02
2019-03-26T11:25:39.543Z,1.85
2019-03-26T11:28:17.392Z,2.83
2019-03-26T11:30:55.504Z,1.50
2019-03-26T11:33:37.041Z,2.25
2019-03-26T11:36:14.975Z,2.00
2019-03-26T11:38:52.908Z,1.70
2019-03-26T11:41:32.181Z,1.90
2019-03-26T11:44:10.029Z,1.80
2019-03-26T11:46:47.863Z,1.80
2019-03-26T11:49:26.483Z,1.42
2019-03-26T11:52:04.795Z,1.70
2019-03-26T11:54:42.926Z,1.35
2019-03-26T11:57:20.684Z,3.55
2019-03-26T11:59:58.419Z,1.60
2019-03-26T12:02:36.244Z,1.47
2019-03-26T12:05:14.689Z,1.40
2019-03-26T12:07:52.404Z,1.30
2019-03-26T12:10:30.659Z,1.57
2019-03-26T12:13:08.391Z,1.60
2019-03-26T12:15:46.235Z,2.72
2019-03-26T12:18:24.109Z,2.08
2019-03-26T12:21:02.722Z,1.67
2019-03-26T12:23:40.571Z,2.37
2019-03-26T12:26:18.273Z,1.90
2019-03-26T12:28:56.117Z,1.62
2019-03-26T12:31:34.476Z,1.72
2019-03-26T12:34:13.879Z,1.07
2019-03-26T12:36:52.365Z,2.20
2019-03-26T12:39:30.531Z,1.32
2019-03-26T12:42:14.825Z,1.40
2019-03-26T12:44:52.636Z,1.50
2019-03-26T12:47:30.663Z,1.50
2019-03-26T12:50:09.671Z,1.40
2019-03-26T12:52:47.536Z,1.20
2019-03-26T12:55:25.453Z,1.17
2019-03-26T12:58:03.275Z,1.65
2019-03-26T13:00:41.106Z,1.42
2019-03-26T13:03:18.856Z,1.12
2019-03-26T13:05:56.813Z,1.32
2019-03-26T13:08:34.554Z,1.40
2019-03-26T13:11:12.407Z,1.10
2019-03-26T13:13:50.191Z,1.95
2019-03-26T13:16:28.148Z,2.15
2019-03-26T13:19:06.439Z,2.58
2019-03-26T13:21:44.215Z,1.60
2019-03-26T13:24:22.141Z,1.20
2019-03-26T13:26:59.983Z,0.93
2019-03-26T13:29:38.108Z,1.20
2019-03-26T13:32:16.007Z,1.10
2019-03-26T13:34:53.820Z,1.10
2019-03-26T13:37:31.985Z,1.35
2019-03-26T13:40:10.651Z,1.45
2019-03-26T13:42:48.478Z,0.95
2019-03-26T13:45:26.364Z,0.90
2019-03-26T13:48:04.336Z,1.10
2019-03-26T13:50:42.216Z,1.02
2019-03-26T13:53:19.901Z,1.12
2019-03-26T13:55:57.633Z,1.30
2019-03-26T13:58:35.463Z,1.15
2019-03-26T14:01:13.718Z,1.55
2019-03-26T14:03:51.566Z,1.30
2019-03-26T14:06:32.334Z,2.58
2019-03-26T14:09:28.025Z,2.35
2019-03-26T14:12:05.846Z,1.22
2019-03-26T14:14:44.093Z,0.98
2019-03-26T14:17:21.769Z,1.67
2019-03-26T14:20:00.610Z,0.93
2019-03-26T14:22:39.133Z,1.22
2019-03-26T14:25:16.876Z,1.72
2019-03-26T14:27:54.843Z,2.20
2019-03-26T14:30:41.403Z,1.30
2019-03-26T14:33:19.101Z,2.08
2019-03-26T14:35:57.037Z,1.25
2019-03-26T14:38:35.425Z,2.08
2019-03-26T14:41:13.467Z,1.87
2019-03-26T14:43:51.636Z,2.37
2019-03-26T14:46:29.743Z,1.30
2019-03-26T14:49:08.030Z,1.50
2019-03-26T14:51:45.910Z,1.35
2019-03-26T14:54:23.847Z,1.95
2019-03-26T14:57:01.485Z,2.70
2019-03-26T14:59:39.510Z,1.75
2019-03-26T15:02:17.414Z,1.20
2019-03-26T15:04:55.866Z,1.20
2019-03-26T15:07:33.843Z,1.30
2019-03-26T15:10:12.370Z,1.12
2019-03-26T15:12:50.260Z,1.00
2019-03-26T15:15:29.458Z,2.15
2019-03-26T15:18:08.781Z,1.82
2019-03-26T15:20:46.756Z,2.60
2019-03-26T15:23:24.540Z,2.50
2019-03-26T15:26:03.535Z,1.92
2019-03-26T15:28:41.416Z,1.98
2019-03-26T15:31:19.830Z,1.50
2019-03-26T15:33:58.029Z,1.45
2019-03-26T15:36:35.967Z,1.50
2019-03-26T15:39:13.774Z,1.77
2019-03-26T15:41:51.689Z,1.10
2019-03-26T15:44:29.415Z,1.60
2019-03-26T15:47:07.377Z,2.10
2019-03-26T15:49:46.550Z,1.57
2019-03-26T15:52:24.272Z,2.02
2019-03-26T15:55:13.189Z,1.92
2019-03-26T15:57:51.066Z,2.15
2019-03-26T16:00:30.865Z,1.37
2019-03-26T16:03:08.753Z,1.90
2019-03-26T16:05:46.657Z,1.87
2019-03-26T16:08:24.487Z,2.17
2019-03-26T16:11:02.610Z,1.50
2019-03-26T16:13:40.421Z,1.95
2019-03-26T16:16:18.876Z,2.42
2019-03-26T16:18:57.249Z,2.00
2019-03-26T16:21:35.671Z,1.85
2019-03-26T16:24:14.444Z,2.00
2019-03-26T16:26:52.791Z,1.77
2019-03-26T16:29:30.538Z,1.95
2019-03-26T16:32:08.858Z,2.40
2019-03-26T16:34:46.872Z,1.85
2019-03-26T16:37:25.521Z,2.10
2019-03-26T16:40:03.398Z,2.50
2019-03-26T16:42:41.380Z,2.60
2019-03-26T16:45:19.484Z,2.33
2019-03-26T16:47:57.648Z,2.58
2019-03-26T16:50:35.345Z,2.25
2019-03-26T16:53:18.600Z,2.17
2019-03-26T16:55:56.377Z,2.50
2019-03-26T16:58:34.094Z,3.10
2019-03-26T17:01:11.918Z,2.92
2019-03-26T17:03:50.914Z,2.52
2019-03-26T17:06:40.153Z,2.05
2019-03-26T17:09:18.471Z,1.85
2019-03-26T17:12:03.130Z,2.85
2019-03-26T17:14:35.804Z,1.87
2019-03-26T17:17:13.562Z,2.22
2019-03-26T17:19:51.519Z,1.85
2019-03-26T17:22:29.493Z,2.90
2019-03-26T17:25:07.893Z,3.25
2019-03-26T17:27:45.718Z,3.20
2019-03-26T17:30:24.183Z,3.20
2019-03-26T17:33:02.211Z,3.83
2019-03-26T17:35:40.153Z,3.75
2019-03-26T17:38:17.934Z,4.15
2019-03-26T17:40:55.750Z,4.12
2019-03-26T17:43:33.512Z,5.10
2019-03-26T17:46:12.021Z,5.35
2019-03-26T17:48:50.281Z,3.60
2019-03-26T17:51:29.165Z,3.85
2019-03-26T17:54:07.146Z,3.58
2019-03-26T17:56:47.403Z,3.62
2019-03-26T17:59:24.917Z,3.65
2019-03-26T18:02:03.190Z,4.50
2019-03-26T18:04:44.861Z,3.92
2019-03-26T18:07:22.839Z,3.98
2019-03-26T18:10:00.769Z,2.92
2019-03-26T18:12:39.087Z,3.37
2019-03-26T18:15:17.012Z,3.65
2019-03-26T18:17:54.886Z,5.90
2019-03-26T18:20:33.200Z,6.87
2019-03-26T18:23:22.494Z,8.15
2019-03-26T18:26:00.256Z,6.12
2019-03-26T18:28:38.608Z,8.05
2019-03-26T18:31:16.600Z,7.80
2019-03-26T18:33:55.447Z,5.35
2019-03-26T18:36:33.851Z,5.03
2019-03-26T18:39:11.800Z,6.42
2019-03-26T18:41:50.364Z,7.25
2019-03-26T18:44:30.046Z,7.12
2019-03-26T18:47:11.517Z,5.20
2019-03-26T18:49:49.840Z,5.85
2019-03-26T18:52:28.344Z,4.25
2019-03-26T18:55:08.073Z,5.65
2019-03-26T18:57:47.237Z,5.12
2019-03-26T19:00:33.872Z,5.62
2019-03-26T19:03:12.279Z,5.40
2019-03-26T19:05:50.617Z,5.62
2019-03-26T19:08:28.524Z,4.80
2019-03-26T19:11:17.340Z,4.92
2019-03-26T19:13:55.368Z,4.40
2019-03-26T19:16:33.854Z,3.42
2019-03-26T19:19:11.916Z,3.92
2019-03-26T19:21:50.001Z,3.35
2019-03-26T19:24:27.905Z,3.60
2019-03-26T19:27:06.153Z,3.22
2019-03-26T19:29:45.649Z,4.17
2019-03-26T19:32:23.445Z,3.72
2019-03-26T19:35:02.564Z,3.80
2019-03-26T19:37:41.912Z,3.45
2019-03-26T19:40:19.740Z,3.75
2019-03-26T19:43:10.164Z,4.25
2019-03-26T19:45:38.344Z,4.62
2019-03-26T19:48:16.412Z,5.12
2019-03-26T19:50:54.706Z,5.30
2019-03-26T19:53:32.674Z,4.40
2019-03-26T19:56:11.599Z,4.28
2019-03-26T19:58:49.431Z,6.00
2019-03-26T20:01:27.771Z,7.15
2019-03-26T20:04:06.593Z,7.75
2019-03-26T20:06:47.494Z,7.22
2019-03-26T20:09:25.607Z,7.85
2019-03-26T20:12:03.585Z,7.50
2019-03-26T20:14:41.393Z,8.58
2019-03-26T20:17:19.210Z,9.05
2019-03-26T20:19:56.841Z,11.88
2019-03-26T20:22:35.232Z,14.45
2019-03-26T20:25:14.789Z,16.07
2019-03-26T20:27:52.728Z,15.80
2019-03-26T20:30:31.052Z,13.65
2019-03-26T20:33:09.943Z,12.70
2019-03-26T20:35:47.985Z,12.15
2019-03-26T20:38:25.868Z,11.55
2019-03-26T20:41:03.934Z,13.13
2019-03-26T20:43:42.278Z,14.00
2019-03-26T20:46:20.247Z,13.95
2019-03-26T20:48:57.875Z,14.93
2019-03-26T20:51:35.956Z,13.40
2019-03-26T20:54:14.115Z,11.50
2019-03-26T20:56:52.798Z,13.78
2019-03-26T20:59:31.534Z,14.55
2019-03-26T21:02:09.520Z,14.13
2019-03-26T21:04:47.586Z,12.73
2019-03-26T21:07:25.628Z,11.57
2019-03-26T21:10:03.572Z,11.03
2019-03-26T21:12:41.884Z,14.30
2019-03-26T21:15:19.676Z,14.95
2019-03-26T21:17:57.613Z,15.05
2019-03-26T21:20:35.415Z,14.00
2019-03-26T21:23:13.887Z,12.75
2019-03-26T21:26:03.221Z,11.60
2019-03-26T21:28:42.707Z,13.65
2019-03-26T21:31:20.429Z,12.20
2019-03-26T21:33:58.345Z,11.85
2019-03-26T21:36:36.917Z,11.78
2019-03-26T21:39:15.280Z,12.00
2019-03-26T21:41:53.381Z,12.10
2019-03-26T21:44:31.233Z,12.53
2019-03-26T21:47:09.637Z,13.43
2019-03-26T21:49:48.589Z,14.00
2019-03-26T21:52:26.712Z,14.40
2019-03-26T21:55:05.034Z,15.03
2019-03-26T21:57:43.328Z,16.73
2019-03-26T22:00:21.115Z,18.12
2019-03-26T22:02:58.950Z,18.15
2019-03-26T22:05:37.351Z,18.12
2019-03-26T22:08:15.076Z,18.10
2019-03-26T22:10:53.030Z,18.95
2019-03-26T22:13:30.964Z,17.50
2019-03-26T22:16:09.559Z,17.45
2019-03-26T22:18:47.324Z,18.87
2019-03-26T22:21:25.552Z,16.65
2019-03-26T22:24:04.625Z,16.23
2019-03-26T22:26:42.796Z,14.58
2019-03-26T22:29:21.390Z,15.80
2019-03-26T22:31:59.428Z,14.15
2019-03-26T22:34:37.289Z,13.60
2019-03-26T22:37:15.305Z,12.35
2019-03-26T22:39:53.055Z,12.93
2019-03-26T22:42:30.917Z,12.28
2019-03-26T22:45:09.777Z,12.18
2019-03-26T22:47:47.562Z,11.83
2019-03-26T22:50:25.832Z,14.63
2019-03-26T22:53:03.655Z,13.93
2019-03-26T22:55:41.633Z,14.30
2019-03-26T22:58:19.476Z,14.87
2019-03-26T23:00:58.586Z,13.72
2019-03-26T23:03:36.745Z,14.80
2019-03-26T23:06:14.721Z,12.58
2019-03-26T23:08:53.109Z,12.03
2019-03-26T23:11:30.828Z,13.32
2019-03-26T23:14:09.300Z,12.28
2019-03-26T23:16:47.685Z,11.90
2019-03-26T23:19:25.799Z,11.73
2019-03-26T23:22:04.335Z,11.43
2019-03-26T23:24:42.359Z,10.75
2019-03-26T23:27:20.274Z,11.15
2019-03-26T23:29:59.181Z,10.48
2019-03-26T23:32:37.649Z,12.18
2019-03-26T23:35:16.156Z,11.45
2019-03-26T23:37:54.157Z,10.80
2019-03-26T23:40:32.520Z,11.30
2019-03-26T23:43:10.441Z,10.25
2019-03-26T23:45:48.795Z,10.65
2019-03-26T23:48:26.720Z,9.45
2019-03-26T23:51:04.662Z,11.12
2019-03-26T23:53:42.533Z,11.05
2019-03-26T23:56:20.831Z,9.78
2019-03-26T23:58:59.112Z,8.90
